Amarillo, TX (79101)

10:34 AM CDT on July 06, 2015 (GMT -0500)
Oliver-Eakle | | Change Station
CLOSE
Current Station
Personal Weather Station
Location: Amarillo, TX
Elevation: 3678 ft
Nearby Weather Stations
Active Advisory: Flash Flood Watch

Elev 3678 ft 35.19 °N, 101.84 °W | Updated 11 seconds ago

Clear
Clear
80.8 °F
Feels Like 83 °F
N
2.9
Wind Variable Wind from West
Gusts 6.9 mph

Today
High -- | Low -- °F
--% Chance of Precip.
Yesterday
High -- | Low -- °F
Precip. -- in
6:38 AM 9:05 PM
Waning Gibbous, 74% visible
Pressure 29.86 in
Visibility 10.0 miles
Clouds Clear
Heat Index 83 °F
Dew Point 67 °F
Humidity 63%
Rainfall 0.00 in
Snow Depth Not available.
UV 5 out of 12
Pollen 2.70 out of 12
Air Quality Not available.
Flu Activity Not available.
METAR KAMA 061453Z 24012KT 10SM CLR 26/18 A3002 RMK AO2 SLP109 T02560183 51019

More Conditions Fewer Conditions

Pressure 29.86 in
Visibility 10.0 miles
Clouds Clear
Heat Index 83 °F
Dew Point 67 °F
Humidity 63%
Rainfall 0.00 in
Snow Depth Not available.
UV 5 out of 12
Pollen 2.70 out of 12
Air Quality Not available.
Flu Activity Not available.
METAR KAMA 061453Z 24012KT 10SM CLR 26/18 A3002 RMK AO2 SLP109 T02560183 51019

More Conditions Fewer Conditions

10-Day Weather Forecast

×

Almanac

Astronomy

Jul. 06, 2015 Rise Set
Actual Time
Civil Twilight
Nautical Twilight
Astronomical Twilight
Moon
Length of Visible Light
Length of Day
Tomorrow will be .
, % of the Moon is Illuminated

Today's Extremes

State Highs State Lows

Community

WunderPhotos

Upload Photos

1,835,573 photos uploaded!

WunderBlogs® & News

Nearby

Air Quality

  Air Quality AQ Index Pollutant
Not available.

Snow Depth

Station Depth Elevation

Earthquake Activity

City Distance Mag. Time & Date
Minimum magnitude displayed is 2.5.

Coastal Water Temperatures

Place Temperature

Stations

Nearby Weather Stations

Station Location Temp. Windchill Dew Point Humidity Wind Precip. Elev Updated Type
                   
Flash Flood Watch
Statement as of 4:13 AM CDT on July 06, 2015

... Flash Flood Watch in effect from 3 PM CDT this afternoon
through Tuesday afternoon...

The National Weather Service in Amarillo has issued a

* Flash Flood Watch for a portion of Texas... including the
following areas... Armstrong... Carson... Collingsworth...
Donley... gray... Hemphill... Hutchinson... Potter... Randall...
Roberts and Wheeler.

* From 3 PM CDT this afternoon through Tuesday afternoon

Showers and thunderstorms are expected to develop this afternoon and
persist into Tuesday... with the potential to produce widespread areas
of heavy rain. Some locations within the watch area may still have
saturated ground... elevating the potential for flash flooding.

Precautionary/preparedness actions...

A Flash Flood Watch means that conditions may develop that lead
to flash flooding. Flash flooding is a very dangerous situation.

You should monitor later forecasts and be prepared to take action
should flash flood warnings be issued.